sensor_id;sensor_type;location;lat;lon;timestamp;temperature;humidity
43346;DHT22;28937;51.160;4.146;2023-07-30T00:01:19;21.00;94.40
43346;DHT22;28937;51.160;4.146;2023-07-30T00:03:44;21.00;94.50
43346;DHT22;28937;51.160;4.146;2023-07-30T00:06:10;21.00;94.50
43346;DHT22;28937;51.160;4.146;2023-07-30T00:08:36;21.00;94.60
43346;DHT22;28937;51.160;4.146;2023-07-30T00:11:01;20.90;94.70
43346;DHT22;28937;51.160;4.146;2023-07-30T00:13:27;21.00;94.70
43346;DHT22;28937;51.160;4.146;2023-07-30T00:15:52;20.90;94.80
43346;DHT22;28937;51.160;4.146;2023-07-30T00:18:19;20.90;94.90
43346;DHT22;28937;51.160;4.146;2023-07-30T00:20:44;20.90;95.00
43346;DHT22;28937;51.160;4.146;2023-07-30T00:23:10;20.90;95.00
43346;DHT22;28937;51.160;4.146;2023-07-30T00:25:36;20.90;95.00
43346;DHT22;28937;51.160;4.146;2023-07-30T00:28:02;20.80;95.00
43346;DHT22;28937;51.160;4.146;2023-07-30T00:30:28;20.80;95.10
43346;DHT22;28937;51.160;4.146;2023-07-30T00:32:53;20.70;95.20
43346;DHT22;28937;51.160;4.146;2023-07-30T00:35:19;20.80;95.30
43346;DHT22;28937;51.160;4.146;2023-07-30T00:37:45;20.80;95.30
43346;DHT22;28937;51.160;4.146;2023-07-30T00:40:11;20.80;95.30
43346;DHT22;28937;51.160;4.146;2023-07-30T00:42:36;20.70;95.40
43346;DHT22;28937;51.160;4.146;2023-07-30T00:45:02;20.70;95.40
43346;DHT22;28937;51.160;4.146;2023-07-30T00:47:28;20.70;95.40
43346;DHT22;28937;51.160;4.146;2023-07-30T00:49:54;20.70;95.50
43346;DHT22;28937;51.160;4.146;2023-07-30T00:52:21;20.60;95.50
43346;DHT22;28937;51.160;4.146;2023-07-30T00:54:48;20.60;95.60
43346;DHT22;28937;51.160;4.146;2023-07-30T00:57:16;20.60;95.60
43346;DHT22;28937;51.160;4.146;2023-07-30T00:59:42;20.50;95.70
43346;DHT22;28937;51.160;4.146;2023-07-30T01:02:08;20.50;95.70
43346;DHT22;28937;51.160;4.146;2023-07-30T01:04:34;20.50;95.80
43346;DHT22;28937;51.160;4.146;2023-07-30T01:07:02;20.50;95.80
43346;DHT22;28937;51.160;4.146;2023-07-30T01:09:28;20.50;95.90
43346;DHT22;28937;51.160;4.146;2023-07-30T01:11:55;20.50;95.90
43346;DHT22;28937;51.160;4.146;2023-07-30T01:14:21;20.50;96.00
43346;DHT22;28937;51.160;4.146;2023-07-30T01:16:48;20.40;96.00
43346;DHT22;28937;51.160;4.146;2023-07-30T01:19:14;20.40;96.00
43346;DHT22;28937;51.160;4.146;2023-07-30T01:21:40;20.40;96.10
43346;DHT22;28937;51.160;4.146;2023-07-30T01:24:05;20.40;96.10
43346;DHT22;28937;51.160;4.146;2023-07-30T01:26:44;20.30;96.20
43346;DHT22;28937;51.160;4.146;2023-07-30T01:29:16;20.30;96.20
43346;DHT22;28937;51.160;4.146;2023-07-30T01:31:57;20.40;96.30
43346;DHT22;28937;51.160;4.146;2023-07-30T01:34:27;20.30;96.30
43346;DHT22;28937;51.160;4.146;2023-07-30T01:36:53;20.30;96.40
43346;DHT22;28937;51.160;4.146;2023-07-30T01:39:20;20.30;96.40
43346;DHT22;28937;51.160;4.146;2023-07-30T01:41:46;20.30;96.50
43346;DHT22;28937;51.160;4.146;2023-07-30T01:44:11;20.30;96.50
43346;DHT22;28937;51.160;4.146;2023-07-30T01:46:37;20.20;96.60
43346;DHT22;28937;51.160;4.146;2023-07-30T01:49:03;20.20;96.60
43346;DHT22;28937;51.160;4.146;2023-07-30T01:51:28;20.20;96.60
43346;DHT22;28937;51.160;4.146;2023-07-30T01:53:54;20.20;96.60
43346;DHT22;28937;51.160;4.146;2023-07-30T01:56:20;20.20;96.60
43346;DHT22;28937;51.160;4.146;2023-07-30T01:58:45;20.20;96.70
43346;DHT22;28937;51.160;4.146;2023-07-30T02:01:11;20.20;96.70
43346;DHT22;28937;51.160;4.146;2023-07-30T02:03:36;20.20;96.70
43346;DHT22;28937;51.160;4.146;2023-07-30T02:06:02;20.10;96.80
43346;DHT22;28937;51.160;4.146;2023-07-30T02:08:27;20.10;96.90
43346;DHT22;28937;51.160;4.146;2023-07-30T02:11:00;20.00;96.90
43346;DHT22;28937;51.160;4.146;2023-07-30T02:13:25;20.00;97.00
43346;DHT22;28937;51.160;4.146;2023-07-30T02:15:51;20.00;97.00
43346;DHT22;28937;51.160;4.146;2023-07-30T02:18:17;20.00;97.10
43346;DHT22;28937;51.160;4.146;2023-07-30T02:20:42;20.00;97.10
43346;DHT22;28937;51.160;4.146;2023-07-30T02:23:08;20.00;97.10
43346;DHT22;28937;51.160;4.146;2023-07-30T02:25:34;20.00;97.20
43346;DHT22;28937;51.160;4.146;2023-07-30T02:28:00;20.00;97.20
43346;DHT22;28937;51.160;4.146;2023-07-30T02:30:27;19.90;97.30
43346;DHT22;28937;51.160;4.146;2023-07-30T02:32:53;19.90;97.40
43346;DHT22;28937;51.160;4.146;2023-07-30T02:35:19;19.90;97.50
43346;DHT22;28937;51.160;4.146;2023-07-30T02:37:44;19.80;97.60
43346;DHT22;28937;51.160;4.146;2023-07-30T02:40:10;19.80;97.70
43346;DHT22;28937;51.160;4.146;2023-07-30T02:42:36;19.80;97.90
43346;DHT22;28937;51.160;4.146;2023-07-30T02:45:02;19.80;97.90
43346;DHT22;28937;51.160;4.146;2023-07-30T02:47:27;19.80;97.90
43346;DHT22;28937;51.160;4.146;2023-07-30T02:49:53;19.80;98.00
43346;DHT22;28937;51.160;4.146;2023-07-30T02:52:18;19.80;98.00
43346;DHT22;28937;51.160;4.146;2023-07-30T02:54:44;19.80;98.10
43346;DHT22;28937;51.160;4.146;2023-07-30T02:57:09;19.80;98.10
43346;DHT22;28937;51.160;4.146;2023-07-30T02:59:36;19.80;98.10
43346;DHT22;28937;51.160;4.146;2023-07-30T03:02:03;19.80;98.10
43346;DHT22;28937;51.160;4.146;2023-07-30T03:04:30;19.80;98.20
43346;DHT22;28937;51.160;4.146;2023-07-30T03:06:56;19.70;98.20
43346;DHT22;28937;51.160;4.146;2023-07-30T03:09:21;19.70;98.20
43346;DHT22;28937;51.160;4.146;2023-07-30T03:11:48;19.80;98.50
43346;DHT22;28937;51.160;4.146;2023-07-30T03:14:14;19.80;98.30
43346;DHT22;28937;51.160;4.146;2023-07-30T03:16:40;19.70;98.30
43346;DHT22;28937;51.160;4.146;2023-07-30T03:19:05;19.70;98.30
43346;DHT22;28937;51.160;4.146;2023-07-30T03:21:31;19.70;98.40
43346;DHT22;28937;51.160;4.146;2023-07-30T03:23:56;19.60;98.50
43346;DHT22;28937;51.160;4.146;2023-07-30T03:26:22;19.60;98.60
43346;DHT22;28937;51.160;4.146;2023-07-30T03:28:47;19.60;98.60
43346;DHT22;28937;51.160;4.146;2023-07-30T03:31:13;19.60;98.60
43346;DHT22;28937;51.160;4.146;2023-07-30T03:33:39;19.60;98.60
43346;DHT22;28937;51.160;4.146;2023-07-30T03:36:12;19.60;99.00
43346;DHT22;28937;51.160;4.146;2023-07-30T03:38:39;19.50;99.00
43346;DHT22;28937;51.160;4.146;2023-07-30T03:41:05;19.60;98.70
43346;DHT22;28937;51.160;4.146;2023-07-30T03:43:32;19.60;98.80
43346;DHT22;28937;51.160;4.146;2023-07-30T03:45:57;19.60;98.80
43346;DHT22;28937;51.160;4.146;2023-07-30T03:48:23;19.50;98.80
43346;DHT22;28937;51.160;4.146;2023-07-30T03:50:48;19.60;99.20
43346;DHT22;28937;51.160;4.146;2023-07-30T03:53:14;19.60;99.00
43346;DHT22;28937;51.160;4.146;2023-07-30T03:55:40;19.50;99.00
43346;DHT22;28937;51.160;4.146;2023-07-30T03:58:06;19.50;99.00
43346;DHT22;28937;51.160;4.146;2023-07-30T04:00:31;19.50;99.00
43346;DHT22;28937;51.160;4.146;2023-07-30T04:02:57;19.50;99.00
43346;DHT22;28937;51.160;4.146;2023-07-30T04:05:22;19.50;99.10
43346;DHT22;28937;51.160;4.146;2023-07-30T04:07:48;19.50;99.10
43346;DHT22;28937;51.160;4.146;2023-07-30T04:10:13;19.50;99.20
43346;DHT22;28937;51.160;4.146;2023-07-30T04:12:39;19.40;99.20
43346;DHT22;28937;51.160;4.146;2023-07-30T04:15:05;19.40;99.30
43346;DHT22;28937;51.160;4.146;2023-07-30T04:17:31;19.40;99.30
43346;DHT22;28937;51.160;4.146;2023-07-30T04:19:56;19.50;99.30
43346;DHT22;28937;51.160;4.146;2023-07-30T04:22:22;19.40;99.30
43346;DHT22;28937;51.160;4.146;2023-07-30T04:24:47;19.40;99.40
43346;DHT22;28937;51.160;4.146;2023-07-30T04:27:13;19.40;99.40
43346;DHT22;28937;51.160;4.146;2023-07-30T04:29:38;19.40;99.40
43346;DHT22;28937;51.160;4.146;2023-07-30T04:32:04;19.40;99.50
43346;DHT22;28937;51.160;4.146;2023-07-30T04:34:30;19.40;99.50
43346;DHT22;28937;51.160;4.146;2023-07-30T04:36:56;19.30;99.50
43346;DHT22;28937;51.160;4.146;2023-07-30T04:39:21;19.40;99.60
43346;DHT22;28937;51.160;4.146;2023-07-30T04:41:47;19.40;99.60
43346;DHT22;28937;51.160;4.146;2023-07-30T04:44:12;19.30;99.70
43346;DHT22;28937;51.160;4.146;2023-07-30T04:46:38;19.30;99.70
43346;DHT22;28937;51.160;4.146;2023-07-30T04:49:03;19.30;99.70
43346;DHT22;28937;51.160;4.146;2023-07-30T04:51:29;19.30;99.80
43346;DHT22;28937;51.160;4.146;2023-07-30T04:53:55;19.30;99.80
43346;DHT22;28937;51.160;4.146;2023-07-30T04:56:20;19.30;99.80
43346;DHT22;28937;51.160;4.146;2023-07-30T04:58:46;19.30;99.90
43346;DHT22;28937;51.160;4.146;2023-07-30T05:01:12;19.30;99.90
43346;DHT22;28937;51.160;4.146;2023-07-30T05:03:37;19.30;99.90
43346;DHT22;28937;51.160;4.146;2023-07-30T05:06:03;19.30;99.90
43346;DHT22;28937;51.160;4.146;2023-07-30T05:08:28;19.30;99.90
43346;DHT22;28937;51.160;4.146;2023-07-30T05:10:54;19.30;99.90
43346;DHT22;28937;51.160;4.146;2023-07-30T05:13:19;19.30;99.90
43346;DHT22;28937;51.160;4.146;2023-07-30T05:15:45;19.30;99.90
43346;DHT22;28937;51.160;4.146;2023-07-30T05:18:11;19.30;99.90
43346;DHT22;28937;51.160;4.146;2023-07-30T05:20:36;19.30;99.90
43346;DHT22;28937;51.160;4.146;2023-07-30T05:23:02;19.20;99.90
43346;DHT22;28937;51.160;4.146;2023-07-30T05:25:28;19.20;99.90
43346;DHT22;28937;51.160;4.146;2023-07-30T05:27:53;19.20;99.90
43346;DHT22;28937;51.160;4.146;2023-07-30T05:30:19;19.30;99.90
43346;DHT22;28937;51.160;4.146;2023-07-30T05:32:44;19.20;99.90
43346;DHT22;28937;51.160;4.146;2023-07-30T05:35:10;19.30;99.90
43346;DHT22;28937;51.160;4.146;2023-07-30T05:37:35;19.30;99.90
43346;DHT22;28937;51.160;4.146;2023-07-30T05:40:01;19.30;99.90
43346;DHT22;28937;51.160;4.146;2023-07-30T05:42:26;19.30;99.90
43346;DHT22;28937;51.160;4.146;2023-07-30T05:44:52;19.30;99.90
43346;DHT22;28937;51.160;4.146;2023-07-30T05:47:17;19.20;99.90
43346;DHT22;28937;51.160;4.146;2023-07-30T05:49:43;19.30;99.90
43346;DHT22;28937;51.160;4.146;2023-07-30T05:52:09;19.30;99.90
43346;DHT22;28937;51.160;4.146;2023-07-30T05:54:34;19.30;99.90
43346;DHT22;28937;51.160;4.146;2023-07-30T05:57:00;19.30;99.90
43346;DHT22;28937;51.160;4.146;2023-07-30T05:59:25;19.30;99.90
43346;DHT22;28937;51.160;4.146;2023-07-30T06:01:51;19.30;99.90
43346;DHT22;28937;51.160;4.146;2023-07-30T06:04:16;19.30;99.90
43346;DHT22;28937;51.160;4.146;2023-07-30T06:06:42;19.30;99.90
43346;DHT22;28937;51.160;4.146;2023-07-30T06:09:07;19.30;99.90
43346;DHT22;28937;51.160;4.146;2023-07-30T06:11:33;19.30;99.90
43346;DHT22;28937;51.160;4.146;2023-07-30T06:13:59;19.30;99.90
43346;DHT22;28937;51.160;4.146;2023-07-30T06:16:24;19.30;99.90
43346;DHT22;28937;51.160;4.146;2023-07-30T06:18:50;19.40;99.90
43346;DHT22;28937;51.160;4.146;2023-07-30T06:21:15;19.40;99.90
43346;DHT22;28937;51.160;4.146;2023-07-30T06:23:41;19.40;99.90
43346;DHT22;28937;51.160;4.146;2023-07-30T06:26:06;19.40;99.90
43346;DHT22;28937;51.160;4.146;2023-07-30T06:28:32;19.50;99.90
43346;DHT22;28937;51.160;4.146;2023-07-30T06:31:03;19.60;99.90
43346;DHT22;28937;51.160;4.146;2023-07-30T06:33:30;19.60;99.90
43346;DHT22;28937;51.160;4.146;2023-07-30T06:35:55;19.60;99.90
43346;DHT22;28937;51.160;4.146;2023-07-30T06:38:21;19.60;99.90
43346;DHT22;28937;51.160;4.146;2023-07-30T06:40:47;19.70;99.90
43346;DHT22;28937;51.160;4.146;2023-07-30T06:43:13;19.70;99.90
43346;DHT22;28937;51.160;4.146;2023-07-30T06:45:38;19.70;99.90
43346;DHT22;28937;51.160;4.146;2023-07-30T06:48:04;19.70;99.90
43346;DHT22;28937;51.160;4.146;2023-07-30T06:50:30;19.80;99.90
43346;DHT22;28937;51.160;4.146;2023-07-30T06:52:55;19.80;99.90
43346;DHT22;28937;51.160;4.146;2023-07-30T06:55:21;19.80;99.90
43346;DHT22;28937;51.160;4.146;2023-07-30T06:57:46;19.80;99.90
43346;DHT22;28937;51.160;4.146;2023-07-30T07:00:12;19.90;99.90
43346;DHT22;28937;51.160;4.146;2023-07-30T07:02:38;19.90;99.90
43346;DHT22;28937;51.160;4.146;2023-07-30T07:05:04;19.90;99.90
43346;DHT22;28937;51.160;4.146;2023-07-30T07:07:30;20.00;99.90
43346;DHT22;28937;51.160;4.146;2023-07-30T07:09:56;20.00;99.90
43346;DHT22;28937;51.160;4.146;2023-07-30T07:12:21;20.00;99.90
43346;DHT22;28937;51.160;4.146;2023-07-30T07:14:47;20.00;99.90
43346;DHT22;28937;51.160;4.146;2023-07-30T07:17:13;20.00;99.90
43346;DHT22;28937;51.160;4.146;2023-07-30T07:19:39;20.10;99.90
43346;DHT22;28937;51.160;4.146;2023-07-30T07:22:05;20.10;99.90
43346;DHT22;28937;51.160;4.146;2023-07-30T07:24:30;20.10;99.90
43346;DHT22;28937;51.160;4.146;2023-07-30T07:26:56;20.20;99.90
43346;DHT22;28937;51.160;4.146;2023-07-30T07:29:22;20.20;99.90
43346;DHT22;28937;51.160;4.146;2023-07-30T07:31:48;20.20;99.90
43346;DHT22;28937;51.160;4.146;2023-07-30T07:34:13;20.20;99.90
43346;DHT22;28937;51.160;4.146;2023-07-30T07:36:39;20.30;99.80
43346;DHT22;28937;51.160;4.146;2023-07-30T07:39:05;20.30;99.80
43346;DHT22;28937;51.160;4.146;2023-07-30T07:41:30;20.30;99.80
43346;DHT22;28937;51.160;4.146;2023-07-30T07:43:56;20.30;99.70
43346;DHT22;28937;51.160;4.146;2023-07-30T07:46:22;20.40;99.70
43346;DHT22;28937;51.160;4.146;2023-07-30T07:48:47;20.40;99.60
43346;DHT22;28937;51.160;4.146;2023-07-30T07:51:13;20.40;99.50
43346;DHT22;28937;51.160;4.146;2023-07-30T07:53:39;20.40;99.50
43346;DHT22;28937;51.160;4.146;2023-07-30T07:56:04;20.50;99.50
43346;DHT22;28937;51.160;4.146;2023-07-30T07:58:30;20.50;99.40
43346;DHT22;28937;51.160;4.146;2023-07-30T08:00:56;20.50;99.30
43346;DHT22;28937;51.160;4.146;2023-07-30T08:03:23;20.50;99.30
43346;DHT22;28937;51.160;4.146;2023-07-30T08:05:49;20.60;99.30
43346;DHT22;28937;51.160;4.146;2023-07-30T08:08:15;20.60;99.60
43346;DHT22;28937;51.160;4.146;2023-07-30T08:10:41;20.60;99.20
43346;DHT22;28937;51.160;4.146;2023-07-30T08:13:10;20.60;99.10
43346;DHT22;28937;51.160;4.146;2023-07-30T08:15:36;20.60;99.10
43346;DHT22;28937;51.160;4.146;2023-07-30T08:18:01;20.70;99.00
43346;DHT22;28937;51.160;4.146;2023-07-30T08:20:27;20.70;98.90
43346;DHT22;28937;51.160;4.146;2023-07-30T08:22:52;20.70;98.90
43346;DHT22;28937;51.160;4.146;2023-07-30T08:25:18;20.70;98.80
43346;DHT22;28937;51.160;4.146;2023-07-30T08:27:44;20.70;98.70
43346;DHT22;28937;51.160;4.146;2023-07-30T08:30:10;20.80;98.80
43346;DHT22;28937;51.160;4.146;2023-07-30T08:32:36;20.80;98.80
43346;DHT22;28937;51.160;4.146;2023-07-30T08:35:02;20.80;98.80
43346;DHT22;28937;51.160;4.146;2023-07-30T08:37:28;20.90;98.50
43346;DHT22;28937;51.160;4.146;2023-07-30T08:39:53;20.90;98.50
43346;DHT22;28937;51.160;4.146;2023-07-30T08:42:19;20.90;98.40
43346;DHT22;28937;51.160;4.146;2023-07-30T08:44:45;20.90;98.30
43346;DHT22;28937;51.160;4.146;2023-07-30T08:47:11;20.90;98.20
43346;DHT22;28937;51.160;4.146;2023-07-30T08:49:36;21.00;98.00
43346;DHT22;28937;51.160;4.146;2023-07-30T08:52:03;21.00;97.70
43346;DHT22;28937;51.160;4.146;2023-07-30T08:54:30;21.00;97.60
43346;DHT22;28937;51.160;4.146;2023-07-30T08:56:57;21.00;97.40
43346;DHT22;28937;51.160;4.146;2023-07-30T08:59:24;21.10;97.40
43346;DHT22;28937;51.160;4.146;2023-07-30T09:01:53;21.10;97.20
43346;DHT22;28937;51.160;4.146;2023-07-30T09:04:19;21.10;97.20
43346;DHT22;28937;51.160;4.146;2023-07-30T09:06:49;21.10;97.10
43346;DHT22;28937;51.160;4.146;2023-07-30T09:09:15;21.20;97.10
43346;DHT22;28937;51.160;4.146;2023-07-30T09:11:41;21.20;96.90
43346;DHT22;28937;51.160;4.146;2023-07-30T09:14:06;21.20;96.80
43346;DHT22;28937;51.160;4.146;2023-07-30T09:16:33;21.20;96.60
43346;DHT22;28937;51.160;4.146;2023-07-30T09:18:58;21.30;96.60
43346;DHT22;28937;51.160;4.146;2023-07-30T09:21:31;21.30;96.20
43346;DHT22;28937;51.160;4.146;2023-07-30T09:23:57;21.30;96.40
43346;DHT22;28937;51.160;4.146;2023-07-30T09:26:44;21.30;96.30
43346;DHT22;28937;51.160;4.146;2023-07-30T09:29:10;21.30;96.20
43346;DHT22;28937;51.160;4.146;2023-07-30T09:31:53;21.30;96.00
43346;DHT22;28937;51.160;4.146;2023-07-30T09:34:21;21.40;95.90
43346;DHT22;28937;51.160;4.146;2023-07-30T09:36:49;21.40;95.90
43346;DHT22;28937;51.160;4.146;2023-07-30T09:39:22;21.40;95.80
43346;DHT22;28937;51.160;4.146;2023-07-30T09:41:49;21.40;95.60
43346;DHT22;28937;51.160;4.146;2023-07-30T09:44:18;21.50;95.50
43346;DHT22;28937;51.160;4.146;2023-07-30T09:46:45;21.50;95.20
43346;DHT22;28937;51.160;4.146;2023-07-30T09:49:11;21.50;95.20
43346;DHT22;28937;51.160;4.146;2023-07-30T09:51:38;21.50;95.10
43346;DHT22;28937;51.160;4.146;2023-07-30T09:54:06;21.60;95.10
43346;DHT22;28937;51.160;4.146;2023-07-30T09:56:32;21.50;94.90
43346;DHT22;28937;51.160;4.146;2023-07-30T09:58:58;21.60;94.90
43346;DHT22;28937;51.160;4.146;2023-07-30T10:01:26;21.60;94.80
43346;DHT22;28937;51.160;4.146;2023-07-30T10:03:56;21.60;94.70
43346;DHT22;28937;51.160;4.146;2023-07-30T10:06:27;21.70;94.70
43346;DHT22;28937;51.160;4.146;2023-07-30T10:08:56;21.70;94.50
43346;DHT22;28937;51.160;4.146;2023-07-30T10:11:24;21.70;94.50
43346;DHT22;28937;51.160;4.146;2023-07-30T10:13:50;21.70;94.60
43346;DHT22;28937;51.160;4.146;2023-07-30T10:16:16;21.70;94.70
43346;DHT22;28937;51.160;4.146;2023-07-30T10:18:43;21.70;94.50
43346;DHT22;28937;51.160;4.146;2023-07-30T10:21:09;21.70;94.60
43346;DHT22;28937;51.160;4.146;2023-07-30T10:23:36;21.70;94.50
43346;DHT22;28937;51.160;4.146;2023-07-30T10:26:10;21.80;94.70
43346;DHT22;28937;51.160;4.146;2023-07-30T10:28:36;21.80;94.80
43346;DHT22;28937;51.160;4.146;2023-07-30T10:31:08;21.80;95.10
43346;DHT22;28937;51.160;4.146;2023-07-30T10:33:51;21.80;95.90
43346;DHT22;28937;51.160;4.146;2023-07-30T10:36:18;21.90;96.20
43346;DHT22;28937;51.160;4.146;2023-07-30T10:38:44;21.90;96.70
43346;DHT22;28937;51.160;4.146;2023-07-30T10:41:13;21.90;96.90
43346;DHT22;28937;51.160;4.146;2023-07-30T10:43:40;21.90;96.80
43346;DHT22;28937;51.160;4.146;2023-07-30T10:46:10;21.90;96.60
43346;DHT22;28937;51.160;4.146;2023-07-30T10:48:38;21.90;96.30
43346;DHT22;28937;51.160;4.146;2023-07-30T10:51:06;21.90;96.50
43346;DHT22;28937;51.160;4.146;2023-07-30T10:53:32;22.00;96.00
43346;DHT22;28937;51.160;4.146;2023-07-30T10:55:59;22.00;95.70
43346;DHT22;28937;51.160;4.146;2023-07-30T10:58:27;22.00;95.60
43346;DHT22;28937;51.160;4.146;2023-07-30T11:00:54;22.00;95.50
43346;DHT22;28937;51.160;4.146;2023-07-30T11:03:19;22.00;95.30
43346;DHT22;28937;51.160;4.146;2023-07-30T11:05:48;22.10;95.50
43346;DHT22;28937;51.160;4.146;2023-07-30T11:08:14;22.00;95.40
43346;DHT22;28937;51.160;4.146;2023-07-30T11:10:46;22.00;95.40
43346;DHT22;28937;51.160;4.146;2023-07-30T11:13:15;22.10;95.40
43346;DHT22;28937;51.160;4.146;2023-07-30T11:15:42;22.10;95.20
43346;DHT22;28937;51.160;4.146;2023-07-30T11:18:08;22.10;95.50
43346;DHT22;28937;51.160;4.146;2023-07-30T11:20:34;22.20;95.00
43346;DHT22;28937;51.160;4.146;2023-07-30T11:22:59;22.10;94.90
43346;DHT22;28937;51.160;4.146;2023-07-30T11:25:25;22.20;94.50
43346;DHT22;28937;51.160;4.146;2023-07-30T11:27:51;22.20;94.60
43346;DHT22;28937;51.160;4.146;2023-07-30T11:30:18;22.20;94.30
43346;DHT22;28937;51.160;4.146;2023-07-30T11:32:43;22.20;94.20
43346;DHT22;28937;51.160;4.146;2023-07-30T11:35:13;22.20;94.10
43346;DHT22;28937;51.160;4.146;2023-07-30T11:37:41;22.30;94.00
43346;DHT22;28937;51.160;4.146;2023-07-30T11:40:11;22.30;93.90
43346;DHT22;28937;51.160;4.146;2023-07-30T11:42:37;22.30;93.70
43346;DHT22;28937;51.160;4.146;2023-07-30T11:45:17;22.30;93.60
43346;DHT22;28937;51.160;4.146;2023-07-30T11:47:44;22.30;93.30
43346;DHT22;28937;51.160;4.146;2023-07-30T11:50:09;22.30;93.20
43346;DHT22;28937;51.160;4.146;2023-07-30T11:52:35;22.30;93.00
43346;DHT22;28937;51.160;4.146;2023-07-30T11:55:05;22.30;92.80
43346;DHT22;28937;51.160;4.146;2023-07-30T11:57:34;22.30;92.70
43346;DHT22;28937;51.160;4.146;2023-07-30T12:00:00;22.30;92.70
43346;DHT22;28937;51.160;4.146;2023-07-30T12:02:26;22.40;92.70
43346;DHT22;28937;51.160;4.146;2023-07-30T12:04:52;22.40;92.50
43346;DHT22;28937;51.160;4.146;2023-07-30T12:07:23;22.40;92.60
43346;DHT22;28937;51.160;4.146;2023-07-30T12:09:49;22.40;92.60
43346;DHT22;28937;51.160;4.146;2023-07-30T12:12:15;22.40;92.60
43346;DHT22;28937;51.160;4.146;2023-07-30T12:17:13;22.50;92.50
43346;DHT22;28937;51.160;4.146;2023-07-30T12:19:38;22.50;92.50
43346;DHT22;28937;51.160;4.146;2023-07-30T12:22:05;22.50;92.50
43346;DHT22;28937;51.160;4.146;2023-07-30T12:24:31;22.50;92.10
43346;DHT22;28937;51.160;4.146;2023-07-30T12:26:57;22.50;91.90
43346;DHT22;28937;51.160;4.146;2023-07-30T12:29:22;22.60;91.70
43346;DHT22;28937;51.160;4.146;2023-07-30T12:31:48;22.60;91.30
43346;DHT22;28937;51.160;4.146;2023-07-30T12:34:17;22.60;90.70
43346;DHT22;28937;51.160;4.146;2023-07-30T12:36:42;22.60;90.20
43346;DHT22;28937;51.160;4.146;2023-07-30T12:39:08;22.60;90.20
43346;DHT22;28937;51.160;4.146;2023-07-30T12:41:33;22.70;90.20
43346;DHT22;28937;51.160;4.146;2023-07-30T12:43:59;22.60;90.30
43346;DHT22;28937;51.160;4.146;2023-07-30T12:46:25;22.70;90.20
43346;DHT22;28937;51.160;4.146;2023-07-30T12:48:58;22.70;90.30
43346;DHT22;28937;51.160;4.146;2023-07-30T12:51:29;22.80;89.90
43346;DHT22;28937;51.160;4.146;2023-07-30T12:53:55;22.70;88.80
43346;DHT22;28937;51.160;4.146;2023-07-30T12:56:20;22.80;88.10
43346;DHT22;28937;51.160;4.146;2023-07-30T12:58:46;22.80;88.00
43346;DHT22;28937;51.160;4.146;2023-07-30T13:01:11;22.80;87.10
43346;DHT22;28937;51.160;4.146;2023-07-30T13:03:37;22.80;87.50
43346;DHT22;28937;51.160;4.146;2023-07-30T13:06:04;22.80;87.70
43346;DHT22;28937;51.160;4.146;2023-07-30T13:08:30;22.80;87.60
43346;DHT22;28937;51.160;4.146;2023-07-30T13:10:55;22.80;87.60
43346;DHT22;28937;51.160;4.146;2023-07-30T13:13:21;22.80;87.40
43346;DHT22;28937;51.160;4.146;2023-07-30T13:15:47;22.80;86.80
43346;DHT22;28937;51.160;4.146;2023-07-30T13:18:12;22.90;86.80
43346;DHT22;28937;51.160;4.146;2023-07-30T13:20:38;22.80;86.90
43346;DHT22;28937;51.160;4.146;2023-07-30T13:23:03;22.90;87.30
43346;DHT22;28937;51.160;4.146;2023-07-30T13:25:29;22.90;87.20
43346;DHT22;28937;51.160;4.146;2023-07-30T13:27:54;22.90;87.50
43346;DHT22;28937;51.160;4.146;2023-07-30T13:30:20;22.90;87.20
43346;DHT22;28937;51.160;4.146;2023-07-30T13:32:46;22.90;88.00
43346;DHT22;28937;51.160;4.146;2023-07-30T13:35:11;22.90;87.70
43346;DHT22;28937;51.160;4.146;2023-07-30T13:37:37;22.90;89.40
43346;DHT22;28937;51.160;4.146;2023-07-30T13:40:02;23.00;88.20
43346;DHT22;28937;51.160;4.146;2023-07-30T13:42:28;23.00;87.90
43346;DHT22;28937;51.160;4.146;2023-07-30T13:44:54;23.00;87.90
43346;DHT22;28937;51.160;4.146;2023-07-30T13:47:19;23.00;88.20
43346;DHT22;28937;51.160;4.146;2023-07-30T13:49:45;23.00;87.90
43346;DHT22;28937;51.160;4.146;2023-07-30T13:52:13;23.00;87.20
43346;DHT22;28937;51.160;4.146;2023-07-30T13:54:38;23.10;86.60
43346;DHT22;28937;51.160;4.146;2023-07-30T13:57:04;23.10;87.00
43346;DHT22;28937;51.160;4.146;2023-07-30T13:59:30;23.10;86.30
43346;DHT22;28937;51.160;4.146;2023-07-30T14:01:56;23.10;85.90
43346;DHT22;28937;51.160;4.146;2023-07-30T14:04:21;23.10;85.90
43346;DHT22;28937;51.160;4.146;2023-07-30T14:06:47;23.10;86.40
43346;DHT22;28937;51.160;4.146;2023-07-30T14:09:12;23.10;86.50
43346;DHT22;28937;51.160;4.146;2023-07-30T14:11:38;23.20;86.30
43346;DHT22;28937;51.160;4.146;2023-07-30T14:14:06;23.20;86.50
43346;DHT22;28937;51.160;4.146;2023-07-30T14:16:31;23.20;86.70
43346;DHT22;28937;51.160;4.146;2023-07-30T14:18:58;23.20;87.00
43346;DHT22;28937;51.160;4.146;2023-07-30T14:21:23;23.20;87.30
43346;DHT22;28937;51.160;4.146;2023-07-30T14:23:49;23.20;87.70
43346;DHT22;28937;51.160;4.146;2023-07-30T14:26:14;23.20;87.80
43346;DHT22;28937;51.160;4.146;2023-07-30T14:28:40;23.20;88.80
43346;DHT22;28937;51.160;4.146;2023-07-30T14:31:05;23.20;89.00
43346;DHT22;28937;51.160;4.146;2023-07-30T14:33:31;23.20;89.40
43346;DHT22;28937;51.160;4.146;2023-07-30T14:35:57;23.20;89.50
43346;DHT22;28937;51.160;4.146;2023-07-30T14:38:22;23.20;89.90
43346;DHT22;28937;51.160;4.146;2023-07-30T14:40:48;23.20;89.70
43346;DHT22;28937;51.160;4.146;2023-07-30T14:43:14;23.30;89.90
43346;DHT22;28937;51.160;4.146;2023-07-30T14:45:39;23.20;89.90
43346;DHT22;28937;51.160;4.146;2023-07-30T14:48:05;23.20;90.00
43346;DHT22;28937;51.160;4.146;2023-07-30T14:50:30;23.20;89.60
43346;DHT22;28937;51.160;4.146;2023-07-30T14:52:56;23.20;89.50
43346;DHT22;28937;51.160;4.146;2023-07-30T14:55:22;23.20;89.30
43346;DHT22;28937;51.160;4.146;2023-07-30T14:57:47;23.20;89.40
43346;DHT22;28937;51.160;4.146;2023-07-30T15:00:13;23.30;89.60
43346;DHT22;28937;51.160;4.146;2023-07-30T15:02:42;23.30;89.60
43346;DHT22;28937;51.160;4.146;2023-07-30T15:05:08;23.30;89.50
43346;DHT22;28937;51.160;4.146;2023-07-30T15:07:34;23.20;89.50
43346;DHT22;28937;51.160;4.146;2023-07-30T15:09:59;23.20;89.50
43346;DHT22;28937;51.160;4.146;2023-07-30T15:12:26;23.30;89.90
43346;DHT22;28937;51.160;4.146;2023-07-30T15:14:51;23.30;89.80
43346;DHT22;28937;51.160;4.146;2023-07-30T15:17:17;23.20;89.60
43346;DHT22;28937;51.160;4.146;2023-07-30T15:19:42;23.20;90.20
43346;DHT22;28937;51.160;4.146;2023-07-30T15:22:12;23.20;90.90
43346;DHT22;28937;51.160;4.146;2023-07-30T15:24:38;23.20;91.80
43346;DHT22;28937;51.160;4.146;2023-07-30T15:27:04;23.20;92.20